PRIVATE WETTERSTATION BILLIGHEIM-ALLFELD                       ZURCK
Wetterdaten: Mittwoch, 22.11.2017
Datum Zeit Temp. A. Temp. A. min Temp. A. max Feuchte A. Luftdruck Regen Wind Richtung Richtung Sonnenschein ET Solar Taupunkt Windchill Windben Empfang
22.11.2017 00:00 4,7 C 4,7 C 4,8 C 91 % 1014,5 hPa 0,0 l/m 6,4 km/h (2 Bft) S-SO 157 0 min 0,000 mm 0 W/m 3,4 C 4,7 C 12,9 km/h (3 Bft) 96 %
22.11.2017 00:10 4,7 C 4,6 C 4,7 C 91 % 1014,7 hPa 0,0 l/m 4,8 km/h (1 Bft) S-SO 157 0 min 0,000 mm 0 W/m 3,4 C 4,7 C 8,0 km/h (2 Bft) 77 %
22.11.2017 00:20 4,7 C 4,6 C 4,7 C 91 % 1014,5 hPa 0,0 l/m 4,8 km/h (1 Bft) SO 135 0 min 0,000 mm 0 W/m 3,4 C 4,7 C 8,0 km/h (2 Bft) 98 %
22.11.2017 00:30 4,7 C 4,7 C 4,8 C 91 % 1014,4 hPa 0,0 l/m 3,2 km/h (1 Bft) SO 135 0 min 0,000 mm 0 W/m 3,4 C 4,7 C 11,3 km/h (2 Bft) 97 %
22.11.2017 00:40 4,7 C 4,7 C 4,7 C 91 % 1014,3 hPa 0,0 l/m 3,2 km/h (1 Bft) S-SO 157 0 min 0,000 mm 0 W/m 3,4 C 4,7 C 9,7 km/h (2 Bft) 98 %
22.11.2017 00:50 4,7 C 4,6 C 4,7 C 91 % 1014,2 hPa 0,0 l/m 3,2 km/h (1 Bft) S-SO 157 0 min 0,000 mm 0 W/m 3,4 C 4,7 C 9,7 km/h (2 Bft) 97 %
22.11.2017 01:00 4,7 C 4,7 C 4,7 C 91 % 1014,2 hPa 0,0 l/m 4,8 km/h (1 Bft) S-SO 157 0 min 0,000 mm 0 W/m 3,4 C 4,7 C 14,5 km/h (3 Bft) 98 %
22.11.2017 01:10 4,6 C 4,6 C 4,7 C 91 % 1014,1 hPa 0,0 l/m 3,2 km/h (1 Bft) S-SO 157 0 min 0,000 mm 0 W/m 3,3 C 4,6 C 8,0 km/h (2 Bft) 96 %
22.11.2017 01:20 4,4 C 4,4 C 4,6 C 91 % 1014,1 hPa 0,0 l/m 3,2 km/h (1 Bft) S-SO 157 0 min 0,000 mm 0 W/m 3,1 C 4,4 C 8,0 km/h (2 Bft) 98 %
22.11.2017 01:30 4,2 C 4,2 C 4,4 C 91 % 1014,0 hPa 0,0 l/m 4,8 km/h (1 Bft) S-SO 157 0 min 0,000 mm 0 W/m 2,9 C 4,2 C 8,0 km/h (2 Bft) 98 %
22.11.2017 01:40 4,2 C 4,1 C 4,2 C 91 % 1013,9 hPa 0,0 l/m 1,6 km/h (1 Bft) S-SO 157 0 min 0,000 mm 0 W/m 2,9 C 4,2 C 6,4 km/h (2 Bft) 97 %
22.11.2017 01:50 4,1 C 4,1 C 4,2 C 91 % 1014,0 hPa 0,0 l/m 3,2 km/h (1 Bft) S-SO 157 0 min 0,000 mm 0 W/m 2,8 C 4,1 C 6,4 km/h (2 Bft) 98 %
22.11.2017 02:00 4,1 C 4,1 C 4,2 C 91 % 1014,1 hPa 0,0 l/m 4,8 km/h (1 Bft) S-SO 157 0 min 0,000 mm 0 W/m 2,8 C 4,1 C 9,7 km/h (2 Bft) 98 %
22.11.2017 02:10 4,0 C 4,0 C 4,1 C 91 % 1014,1 hPa 0,0 l/m 4,8 km/h (1 Bft) S-SO 157 0 min 0,000 mm 0 W/m 2,7 C 4,0 C 11,3 km/h (2 Bft) 98 %
22.11.2017 02:20 3,9 C 3,9 C 4,0 C 91 % 1014,2 hPa 0,0 l/m 1,6 km/h (1 Bft) S-SO 157 0 min 0,000 mm 0 W/m 2,6 C 3,9 C 8,0 km/h (2 Bft) 97 %
22.11.2017 02:30 3,8 C 3,8 C 3,9 C 91 % 1014,2 hPa 0,0 l/m 3,2 km/h (1 Bft) S-SO 157 0 min 0,000 mm 0 W/m 2,5 C 3,8 C 9,7 km/h (2 Bft) 98 %
22.11.2017 02:40 3,7 C 3,7 C 3,8 C 91 % 1014,0 hPa 0,0 l/m 4,8 km/h (1 Bft) S-SO 157 0 min 0,000 mm 0 W/m 2,4 C 3,7 C 11,3 km/h (2 Bft) 98 %
22.11.2017 02:50 3,6 C 3,6 C 3,7 C 91 % 1014,0 hPa 0,0 l/m 4,8 km/h (1 Bft) SO 135 0 min 0,000 mm 0 W/m 2,3 C 3,6 C 8,0 km/h (2 Bft) 97 %
22.11.2017 03:00 3,5 C 3,5 C 3,6 C 91 % 1013,9 hPa 0,0 l/m 3,2 km/h (1 Bft) SO 135 0 min 0,000 mm 0 W/m 2,2 C 3,5 C 11,3 km/h (2 Bft) 98 %
22.11.2017 03:10 3,4 C 3,4 C 3,5 C 91 % 1013,9 hPa 0,0 l/m 3,2 km/h (1 Bft) SO 135 0 min 0,000 mm 0 W/m 2,1 C 3,4 C 11,3 km/h (2 Bft) 97 %
22.11.2017 03:20 3,3 C 3,3 C 3,4 C 91 % 1013,7 hPa 0,0 l/m 6,4 km/h (2 Bft) SO 135 0 min 0,000 mm 0 W/m 2,0 C 3,3 C 11,3 km/h (2 Bft) 98 %
22.11.2017 03:30 3,1 C 3,1 C 3,3 C 91 % 1013,6 hPa 0,0 l/m 4,8 km/h (1 Bft) S-SO 157 0 min 0,000 mm 0 W/m 1,8 C 3,1 C 8,0 km/h (2 Bft) 97 %
22.11.2017 03:40 3,1 C 3,1 C 3,2 C 91 % 1013,5 hPa 0,0 l/m 4,8 km/h (1 Bft) S-SO 157 0 min 0,000 mm 0 W/m 1,8 C 3,1 C 9,7 km/h (2 Bft) 97 %
22.11.2017 03:50 2,9 C 2,9 C 3,1 C 91 % 1013,5 hPa 0,0 l/m 4,8 km/h (1 Bft) SO 135 0 min 0,000 mm 0 W/m 1,6 C 2,9 C 8,0 km/h (2 Bft) 93 %
22.11.2017 04:00 2,9 C 2,9 C 2,9 C 91 % 1013,5 hPa 0,0 l/m 4,8 km/h (1 Bft) SO 135 0 min 0,000 mm 0 W/m 1,6 C 2,9 C 9,7 km/h (2 Bft) 93 %
22.11.2017 04:10 3,0 C 2,9 C 3,1 C 91 % 1013,6 hPa 0,0 l/m 3,2 km/h (1 Bft) SO 135 0 min 0,000 mm 0 W/m 1,7 C 3,0 C 8,0 km/h (2 Bft) 98 %
22.11.2017 04:20 2,9 C 2,9 C 3,0 C 91 % 1013,6 hPa 0,0 l/m 3,2 km/h (1 Bft) SO 135 0 min 0,000 mm 0 W/m 1,6 C 2,9 C 8,0 km/h (2 Bft) 97 %
22.11.2017 04:30 2,9 C 2,9 C 2,9 C 91 % 1013,4 hPa 0,0 l/m 4,8 km/h (1 Bft) SO 135 0 min 0,000 mm 0 W/m 1,6 C 2,9 C 9,7 km/h (2 Bft) 97 %
22.11.2017 04:40 2,9 C 2,9 C 2,9 C 91 % 1013,5 hPa 0,0 l/m 4,8 km/h (1 Bft) SO 135 0 min 0,000 mm 0 W/m 1,6 C 2,9 C 11,3 km/h (2 Bft) 97 %
22.11.2017 04:50 2,8 C 2,8 C 2,9 C 91 % 1013,4 hPa 0,0 l/m 6,4 km/h (2 Bft) SO 135 0 min 0,000 mm 0 W/m 1,5 C 2,8 C 11,3 km/h (2 Bft) 96 %
22.11.2017 05:00 2,7 C 2,7 C 2,8 C 91 % 1013,5 hPa 0,0 l/m 4,8 km/h (1 Bft) SO 135 0 min 0,000 mm 0 W/m 1,4 C 2,7 C 11,3 km/h (2 Bft) 98 %
22.11.2017 05:10 2,8 C 2,7 C 2,8 C 91 % 1013,4 hPa 0,0 l/m 4,8 km/h (1 Bft) SO 135 0 min 0,000 mm 0 W/m 1,5 C 2,8 C 9,7 km/h (2 Bft) 98 %
22.11.2017 05:20 3,1 C 2,8 C 3,1 C 91 % 1013,5 hPa 0,0 l/m 3,2 km/h (1 Bft) S-SO 157 0 min 0,000 mm 0 W/m 1,8 C 3,1 C 9,7 km/h (2 Bft) 98 %
22.11.2017 05:30 3,2 C 3,1 C 3,2 C 91 % 1013,3 hPa 0,0 l/m 6,4 km/h (2 Bft) S-SO 157 0 min 0,000 mm 0 W/m 1,9 C 3,2 C 11,3 km/h (2 Bft) 97 %
22.11.2017 05:40 2,9 C 2,9 C 3,2 C 91 % 1013,2 hPa 0,0 l/m 4,8 km/h (1 Bft) S-SO 157 0 min 0,000 mm 0 W/m 1,6 C 2,9 C 9,7 km/h (2 Bft) 98 %
22.11.2017 05:50 2,9 C 2,8 C 2,9 C 91 % 1013,1 hPa 0,0 l/m 4,8 km/h (1 Bft) S-SO 157 0 min 0,000 mm 0 W/m 1,6 C 2,9 C 9,7 km/h (2 Bft) 96 %
22.11.2017 06:00 2,9 C 2,9 C 2,9 C 91 % 1013,2 hPa 0,0 l/m 4,8 km/h (1 Bft) S-SO 157 0 min 0,000 mm 0 W/m 1,6 C 2,9 C 8,0 km/h (2 Bft) 97 %
22.11.2017 06:10 2,9 C 2,9 C 2,9 C 91 % 1013,2 hPa 0,0 l/m 4,8 km/h (1 Bft) S-SO 157 0 min 0,000 mm 0 W/m 1,6 C 2,9 C 9,7 km/h (2 Bft) 98 %
22.11.2017 06:20 2,8 C 2,8 C 2,9 C 91 % 1013,1 hPa 0,0 l/m 4,8 km/h (1 Bft) S-SO 157 0 min 0,000 mm 0 W/m 1,5 C 2,8 C 8,0 km/h (2 Bft) 98 %
22.11.2017 06:30 2,8 C 2,8 C 2,9 C 91 % 1013,2 hPa 0,0 l/m 1,6 km/h (1 Bft) S-SO 157 0 min 0,000 mm 0 W/m 1,5 C 2,8 C 9,7 km/h (2 Bft) 98 %
22.11.2017 06:40 2,8 C 2,8 C 2,8 C 91 % 1013,0 hPa 0,0 l/m 4,8 km/h (1 Bft) SO 135 0 min 0,000 mm 0 W/m 1,5 C 2,8 C 8,0 km/h (2 Bft) 97 %
22.11.2017 06:50 2,8 C 2,8 C 2,8 C 91 % 1013,0 hPa 0,0 l/m 4,8 km/h (1 Bft) SO 135 0 min 0,000 mm 0 W/m 1,5 C 2,8 C 9,7 km/h (2 Bft) 97 %
22.11.2017 07:00 2,8 C 2,8 C 2,8 C 91 % 1013,0 hPa 0,0 l/m 6,4 km/h (2 Bft) SO 135 0 min 0,000 mm 0 W/m 1,5 C 2,8 C 11,3 km/h (2 Bft) 98 %
22.11.2017 07:10 2,8 C 2,8 C 2,8 C 91 % 1013,1 hPa 0,0 l/m 6,4 km/h (2 Bft) S-SO 157 0 min 0,000 mm 0 W/m 1,5 C 2,8 C 11,3 km/h (2 Bft) 97 %
22.11.2017 07:20 2,8 C 2,8 C 2,8 C 91 % 1013,2 hPa 0,0 l/m 4,8 km/h (1 Bft) SO 135 0 min 0,000 mm 0 W/m 1,5 C 2,8 C 9,7 km/h (2 Bft) 90 %
22.11.2017 07:30 3,0 C 2,8 C 3,0 C 91 % 1013,3 hPa 0,0 l/m 1,6 km/h (1 Bft) O-SO 112 0 min 0,000 mm 0 W/m 1,7 C 3,0 C 9,7 km/h (2 Bft) 95 %
22.11.2017 07:40 2,9 C 2,9 C 3,0 C 91 % 1013,0 hPa 0,0 l/m 1,6 km/h (1 Bft) SO 135 0 min 0,000 mm 0 W/m 1,6 C 2,9 C 8,0 km/h (2 Bft) 98 %
22.11.2017 07:50 2,8 C 2,8 C 2,9 C 91 % 1013,2 hPa 0,0 l/m 1,6 km/h (1 Bft) SO 135 0 min 0,000 mm 5 W/m 1,5 C 2,8 C 6,4 km/h (2 Bft) 97 %
22.11.2017 08:00 2,9 C 2,8 C 2,9 C 91 % 1013,3 hPa 0,0 l/m 1,6 km/h (1 Bft) SO 135 0 min 0,000 mm 14 W/m 1,6 C 2,9 C 4,8 km/h (1 Bft) 97 %
22.11.2017 08:10 3,1 C 2,9 C 3,1 C 91 % 1013,2 hPa 0,0 l/m 4,8 km/h (1 Bft) SO 135 0 min 0,000 mm 19 W/m 1,8 C 3,1 C 8,0 km/h (2 Bft) 97 %
22.11.2017 08:20 3,2 C 3,1 C 3,2 C 91 % 1013,2 hPa 0,0 l/m 4,8 km/h (1 Bft) SO 135 0 min 0,000 mm 26 W/m 1,9 C 3,2 C 9,7 km/h (2 Bft) 98 %
22.11.2017 08:30 3,1 C 3,1 C 3,2 C 91 % 1013,1 hPa 0,0 l/m 6,4 km/h (2 Bft) S-SO 157 0 min 0,000 mm 39 W/m 1,8 C 3,1 C 9,7 km/h (2 Bft) 97 %
22.11.2017 08:40 3,0 C 3,0 C 3,1 C 91 % 1013,2 hPa 0,0 l/m 6,4 km/h (2 Bft) S-SO 157 0 min 0,000 mm 46 W/m 1,7 C 3,0 C 11,3 km/h (2 Bft) 98 %
22.11.2017 08:50 2,9 C 2,9 C 3,0 C 91 % 1013,2 hPa 0,0 l/m 4,8 km/h (1 Bft) S-SO 157 0 min 0,000 mm 46 W/m 1,6 C 2,9 C 11,3 km/h (2 Bft) 98 %
22.11.2017 09:00 2,9 C 2,8 C 2,9 C 91 % 1013,2 hPa 0,0 l/m 6,4 km/h (2 Bft) S-SO 157 0 min 0,025 mm 72 W/m 1,6 C 2,9 C 14,5 km/h (3 Bft) 98 %
22.11.2017 09:10 3,1 C 2,9 C 3,1 C 91 % 1013,3 hPa 0,0 l/m 4,8 km/h (1 Bft) S-SO 157 0 min 0,000 mm 74 W/m 1,8 C 3,1 C 9,7 km/h (2 Bft) 98 %
22.11.2017 09:20 3,4 C 3,1 C 3,4 C 91 % 1013,3 hPa 0,0 l/m 4,8 km/h (1 Bft) S-SO 157 10 min 0,000 mm 171 W/m 2,1 C 3,4 C 11,3 km/h (2 Bft) 98 %
22.11.2017 09:30 3,8 C 3,4 C 3,8 C 91 % 1013,3 hPa 0,0 l/m 3,2 km/h (1 Bft) SO 135 10 min 0,000 mm 214 W/m 2,5 C 3,8 C 8,0 km/h (2 Bft) 97 %
22.11.2017 09:40 3,9 C 3,8 C 3,9 C 91 % 1013,4 hPa 0,0 l/m 1,6 km/h (1 Bft) SO 135 10 min 0,000 mm 195 W/m 2,6 C 3,9 C 8,0 km/h (2 Bft) 97 %
22.11.2017 09:50 4,2 C 3,9 C 4,2 C 91 % 1013,5 hPa 0,0 l/m 4,8 km/h (1 Bft) SO 135 10 min 0,000 mm 185 W/m 2,9 C 4,2 C 9,7 km/h (2 Bft) 98 %
22.11.2017 10:00 4,6 C 4,2 C 4,6 C 91 % 1013,4 hPa 0,0 l/m 4,8 km/h (1 Bft) SO 135 10 min 0,051 mm 232 W/m 3,3 C 4,6 C 9,7 km/h (2 Bft) 98 %
22.11.2017 10:10 4,6 C 4,6 C 4,7 C 91 % 1013,3 hPa 0,0 l/m 1,6 km/h (1 Bft) SO 135 10 min 0,000 mm 232 W/m 3,3 C 4,6 C 8,0 km/h (2 Bft) 97 %
22.11.2017 10:20 4,9 C 4,7 C 4,9 C 91 % 1013,2 hPa 0,0 l/m 1,6 km/h (1 Bft) S-SO 157 10 min 0,000 mm 251 W/m 3,6 C 4,9 C 6,4 km/h (2 Bft) 98 %
22.11.2017 10:30 5,4 C 4,9 C 5,4 C 91 % 1013,3 hPa 0,0 l/m 3,2 km/h (1 Bft) O-SO 112 10 min 0,000 mm 308 W/m 4,1 C 5,4 C 8,0 km/h (2 Bft) 98 %
22.11.2017 10:50 6,4 C 4,9 C 6,4 C 91 % 1013,4 hPa 0,0 l/m 0,8 km/h (0 Bft) S-SO 166 20 min 0,000 mm 216 W/m 5,0 C 6,4 C 6,4 km/h (2 Bft) 99 %
22.11.2017 11:00 7,1 C 6,4 C 7,1 C 91 % 1013,4 hPa 0,0 l/m 1,3 km/h (1 Bft) S-SO 165 10 min 0,102 mm 299 W/m 5,7 C 7,1 C 9,7 km/h (2 Bft) 100 %
22.11.2017 11:10 7,4 C 7,1 C 7,4 C 91 % 1013,4 hPa 0,0 l/m 0,3 km/h (0 Bft) S-SO 147 10 min 0,000 mm 320 W/m 6,0 C 7,4 C 8,0 km/h (2 Bft) 100 %
22.11.2017 11:20 7,8 C 7,4 C 7,8 C 90 % 1013,4 hPa 0,0 l/m 0,3 km/h (0 Bft) S-SO 153 10 min 0,000 mm 246 W/m 6,3 C 7,8 C 4,8 km/h (1 Bft) 99 %
22.11.2017 11:30 7,8 C 7,7 C 7,8 C 90 % 1013,3 hPa 0,0 l/m 1,6 km/h (1 Bft) S-SO 163 10 min 0,000 mm 274 W/m 6,3 C 7,8 C 9,7 km/h (2 Bft) 100 %
22.11.2017 11:40 7,8 C 7,8 C 7,8 C 89 % 1013,1 hPa 0,0 l/m 1,0 km/h (0 Bft) S-SW 196 0 min 0,000 mm 151 W/m 6,1 C 7,8 C 8,0 km/h (2 Bft) 100 %
22.11.2017 11:50 7,9 C 7,8 C 7,9 C 89 % 1013,1 hPa 0,0 l/m 1,5 km/h (1 Bft) S 175 10 min 0,000 mm 258 W/m 6,2 C 7,9 C 9,7 km/h (2 Bft) 100 %
22.11.2017 12:00 8,1 C 7,9 C 8,1 C 88 % 1013,0 hPa 0,0 l/m 3,2 km/h (1 Bft) SO 144 10 min 0,101 mm 269 W/m 6,2 C 8,1 C 11,3 km/h (2 Bft) 100 %
22.11.2017 12:10 8,3 C 8,1 C 8,3 C 89 % 1013,0 hPa 0,0 l/m 4,5 km/h (1 Bft) SO 138 10 min 0,000 mm 223 W/m 6,6 C 8,3 C 9,7 km/h (2 Bft) 99 %
22.11.2017 12:20 8,7 C 8,3 C 8,7 C 89 % 1012,9 hPa 0,0 l/m 3,0 km/h (1 Bft) S-SW 196 10 min 0,000 mm 179 W/m 7,0 C 8,7 C 8,0 km/h (2 Bft) 99 %
22.11.2017 12:30 8,9 C 8,7 C 8,9 C 87 % 1012,7 hPa 0,0 l/m 5,4 km/h (1 Bft) S-SW 202 10 min 0,000 mm 192 W/m 6,9 C 8,9 C 11,3 km/h (2 Bft) 100 %
22.11.2017 12:40 8,8 C 8,8 C 8,9 C 87 % 1012,7 hPa 0,0 l/m 3,7 km/h (1 Bft) S 187 10 min 0,000 mm 171 W/m 6,8 C 8,8 C 11,3 km/h (2 Bft) 100 %
22.11.2017 12:50 9,1 C 8,8 C 9,1 C 87 % 1012,7 hPa 0,0 l/m 3,9 km/h (1 Bft) S-SW 198 10 min 0,000 mm 209 W/m 7,1 C 9,1 C 11,3 km/h (2 Bft) 100 %
22.11.2017 13:00 9,3 C 9,1 C 9,3 C 87 % 1012,7 hPa 0,0 l/m 2,8 km/h (1 Bft) S 190 10 min 0,102 mm 276 W/m 7,2 C 9,3 C 9,7 km/h (2 Bft) 99 %
22.11.2017 13:10 9,4 C 9,3 C 9,4 C 85 % 1012,5 hPa 0,0 l/m 2,4 km/h (1 Bft) S 178 10 min 0,000 mm 183 W/m 7,0 C 9,4 C 9,7 km/h (2 Bft) 100 %
22.11.2017 13:20 9,6 C 9,4 C 9,6 C 85 % 1012,5 hPa 0,0 l/m 4,2 km/h (1 Bft) S 178 0 min 0,000 mm 142 W/m 7,2 C 9,6 C 9,7 km/h (2 Bft) 98 %
22.11.2017 13:30 9,6 C 9,5 C 9,6 C 86 % 1012,3 hPa 0,0 l/m 0,7 km/h (0 Bft) S-SO 167 10 min 0,000 mm 186 W/m 7,4 C 9,6 C 4,8 km/h (1 Bft) 100 %
22.11.2017 13:40 10,0 C 9,6 C 10,0 C 85 % 1012,3 hPa 0,0 l/m 2,4 km/h (1 Bft) S-SW 196 10 min 0,000 mm 311 W/m 7,6 C 10,0 C 11,3 km/h (2 Bft) 99 %
22.11.2017 13:50 10,4 C 10,0 C 10,4 C 84 % 1012,3 hPa 0,0 l/m 4,2 km/h (1 Bft) S 190 10 min 0,000 mm 174 W/m 7,8 C 10,4 C 9,7 km/h (2 Bft) 100 %
22.11.2017 14:00 10,6 C 10,4 C 10,6 C 82 % 1012,2 hPa 0,0 l/m 2,9 km/h (1 Bft) SO 140 0 min 0,102 mm 141 W/m 7,7 C 10,6 C 11,3 km/h (2 Bft) 100 %
22.11.2017 14:10 10,4 C 10,4 C 10,6 C 82 % 1012,2 hPa 0,0 l/m 1,8 km/h (1 Bft) S-SW 195 10 min 0,000 mm 243 W/m 7,5 C 10,4 C 9,7 km/h (2 Bft) 100 %
22.11.2017 14:20 10,5 C 10,4 C 10,5 C 81 % 1012,0 hPa 0,0 l/m 2,1 km/h (1 Bft) S 182 10 min 0,000 mm 174 W/m 7,4 C 10,5 C 9,7 km/h (2 Bft) 100 %
22.11.2017 14:30 10,6 C 10,5 C 10,6 C 82 % 1012,0 hPa 0,0 l/m 1,7 km/h (1 Bft) S-SW 202 10 min 0,000 mm 218 W/m 7,7 C 10,6 C 9,7 km/h (2 Bft) 98 %
22.11.2017 14:40 10,7 C 10,6 C 10,7 C 80 % 1012,0 hPa 0,0 l/m 2,5 km/h (1 Bft) S-SW 199 0 min 0,000 mm 39 W/m 7,4 C 10,7 C 14,5 km/h (3 Bft) 99 %
22.11.2017 14:50 10,7 C 10,7 C 10,7 C 80 % 1012,0 hPa 0,0 l/m 1,2 km/h (1 Bft) S 188 0 min 0,000 mm 35 W/m 7,4 C 10,7 C 9,7 km/h (2 Bft) 99 %
22.11.2017 15:00 10,7 C 10,7 C 10,7 C 80 % 1012,0 hPa 0,0 l/m 2,1 km/h (1 Bft) S 175 0 min 0,076 mm 33 W/m 7,4 C 10,7 C 9,7 km/h (2 Bft) 98 %
22.11.2017 15:10 10,7 C 10,7 C 10,7 C 80 % 1011,9 hPa 0,0 l/m 1,8 km/h (1 Bft) S 180 0 min 0,000 mm 32 W/m 7,4 C 10,7 C 9,7 km/h (2 Bft) 100 %
22.11.2017 15:20 10,7 C 10,6 C 10,7 C 79 % 1011,8 hPa 0,0 l/m 2,3 km/h (1 Bft) S 172 0 min 0,000 mm 32 W/m 7,2 C 10,7 C 9,7 km/h (2 Bft) 100 %
22.11.2017 15:30 10,5 C 10,5 C 10,7 C 79 % 1011,7 hPa 0,0 l/m 0,0 km/h (0 Bft) S-SW 192 0 min 0,000 mm 30 W/m 7,0 C 10,5 C 1,6 km/h (1 Bft) 100 %
22.11.2017 15:40 10,4 C 10,4 C 10,5 C 80 % 1011,6 hPa 0,0 l/m 1,2 km/h (1 Bft) S 185 0 min 0,000 mm 28 W/m 7,1 C 10,4 C 6,4 km/h (2 Bft) 99 %
22.11.2017 15:50 10,3 C 10,3 C 10,4 C 79 % 1011,6 hPa 0,0 l/m 0,0 km/h (0 Bft) S 185 0 min 0,000 mm 25 W/m 6,8 C 10,3 C 0,0 km/h (0 Bft) 100 %
22.11.2017 16:00 10,2 C 10,2 C 10,3 C 80 % 1011,5 hPa 0,0 l/m 0,0 km/h (0 Bft) S 186 0 min 0,025 mm 21 W/m 6,9 C 10,2 C 1,6 km/h (1 Bft) 100 %
22.11.2017 16:10 10,2 C 10,2 C 10,3 C 79 % 1011,5 hPa 0,0 l/m 0,0 km/h (0 Bft) S-SO 157 0 min 0,000 mm 16 W/m 6,7 C 10,2 C 0,0 km/h (0 Bft) 100 %
22.11.2017 16:20 10,2 C 10,2 C 10,3 C 80 % 1011,5 hPa 0,0 l/m 0,0 km/h (0 Bft) S-SO 157 0 min 0,000 mm 11 W/m 6,9 C 10,2 C 0,0 km/h (0 Bft) 100 %
22.11.2017 16:30 9,7 C 9,7 C 10,2 C 80 % 1011,5 hPa 0,0 l/m 0,0 km/h (0 Bft) S-SO 157 0 min 0,000 mm 5 W/m 6,4 C 9,7 C 0,0 km/h (0 Bft) 99 %
22.11.2017 16:40 9,4 C 9,4 C 9,7 C 81 % 1011,5 hPa 0,0 l/m 0,0 km/h (0 Bft) S-SO 157 0 min 0,000 mm 0 W/m 6,3 C 9,4 C 1,6 km/h (1 Bft) 99 %
22.11.2017 16:50 9,5 C 9,4 C 9,5 C 81 % 1011,4 hPa 0,0 l/m 0,0 km/h (0 Bft) S-SO 157 0 min 0,000 mm 0 W/m 6,4 C 9,5 C 0,0 km/h (0 Bft) 100 %
22.11.2017 17:00 9,2 C 9,2 C 9,5 C 81 % 1011,3 hPa 0,0 l/m 0,0 km/h (0 Bft) S-SO 157 0 min 0,000 mm 0 W/m 6,1 C 9,2 C 0,0 km/h (0 Bft) 99 %
22.11.2017 17:10 8,6 C 8,6 C 9,2 C 82 % 1011,3 hPa 0,0 l/m 0,0 km/h (0 Bft) S-SO 157 0 min 0,000 mm 0 W/m 5,7 C 8,6 C 0,0 km/h (0 Bft) 99 %
22.11.2017 17:20 8,0 C 8,0 C 8,6 C 83 % 1011,2 hPa 0,0 l/m 0,0 km/h (0 Bft) S-SO 157 0 min 0,000 mm 0 W/m 5,3 C 8,0 C 0,0 km/h (0 Bft) 100 %
22.11.2017 17:30 7,4 C 7,4 C 8,0 C 85 % 1011,1 hPa 0,0 l/m 0,0 km/h (0 Bft) S-SO 157 0 min 0,000 mm 0 W/m 5,0 C 7,4 C 0,0 km/h (0 Bft) 100 %
22.11.2017 17:40 7,1 C 7,1 C 7,4 C 86 % 1011,0 hPa 0,0 l/m 0,0 km/h (0 Bft) S-SO 157 0 min 0,000 mm 0 W/m 4,9 C 7,1 C 0,0 km/h (0 Bft) 100 %
22.11.2017 17:50 6,7 C 6,7 C 7,1 C 87 % 1011,0 hPa 0,0 l/m 0,0 km/h (0 Bft) S-SO 157 0 min 0,000 mm 0 W/m 4,7 C 6,7 C 0,0 km/h (0 Bft) 100 %
22.11.2017 18:00 6,3 C 6,3 C 6,7 C 88 % 1011,0 hPa 0,0 l/m 0,0 km/h (0 Bft) S-SO 157 0 min 0,000 mm 0 W/m 4,5 C 6,3 C 0,0 km/h (0 Bft) 99 %
22.11.2017 18:10 5,9 C 5,9 C 6,3 C 88 % 1010,9 hPa 0,0 l/m 0,0 km/h (0 Bft) S-SO 157 0 min 0,000 mm 0 W/m 4,1 C 5,9 C 0,0 km/h (0 Bft) 100 %
22.11.2017 18:20 5,6 C 5,6 C 5,9 C 89 % 1010,9 hPa 0,0 l/m 0,0 km/h (0 Bft) S-SO 157 0 min 0,000 mm 0 W/m 3,9 C 5,6 C 0,0 km/h (0 Bft) 100 %
22.11.2017 18:30 5,3 C 5,3 C 5,6 C 90 % 1010,9 hPa 0,0 l/m 0,0 km/h (0 Bft) S-SO 157 0 min 0,000 mm 0 W/m 3,8 C 5,3 C 0,0 km/h (0 Bft) 99 %
22.11.2017 18:40 5,0 C 5,0 C 5,3 C 90 % 1010,8 hPa 0,0 l/m 0,0 km/h (0 Bft) S-SO 157 0 min 0,000 mm 0 W/m 3,5 C 5,0 C 0,0 km/h (0 Bft) 99 %
22.11.2017 18:50 4,8 C 4,8 C 5,0 C 90 % 1010,7 hPa 0,0 l/m 0,0 km/h (0 Bft) S-SO 157 0 min 0,000 mm 0 W/m 3,3 C 4,8 C 0,0 km/h (0 Bft) 100 %
22.11.2017 19:00 4,5 C 4,5 C 4,8 C 90 % 1010,7 hPa 0,0 l/m 0,0 km/h (0 Bft) S-SO 157 0 min 0,000 mm 0 W/m 3,0 C 4,5 C 0,0 km/h (0 Bft) 100 %
22.11.2017 19:10 4,1 C 4,1 C 4,5 C 90 % 1010,6 hPa 0,0 l/m 0,0 km/h (0 Bft) S-SO 154 0 min 0,000 mm 0 W/m 2,6 C 4,1 C 0,0 km/h (0 Bft) 100 %
22.11.2017 19:20 3,8 C 3,8 C 4,1 C 90 % 1010,6 hPa 0,0 l/m 0,0 km/h (0 Bft) S-SO 154 0 min 0,000 mm 0 W/m 2,3 C 3,8 C 0,0 km/h (0 Bft) 100 %
22.11.2017 19:30 3,6 C 3,6 C 3,8 C 90 % 1010,5 hPa 0,0 l/m 0,0 km/h (0 Bft) S-SO 154 0 min 0,000 mm 0 W/m 2,1 C 3,6 C 0,0 km/h (0 Bft) 99 %
22.11.2017 19:40 3,4 C 3,4 C 3,6 C 90 % 1010,5 hPa 0,0 l/m 0,0 km/h (0 Bft) S-SO 154 0 min 0,000 mm 0 W/m 1,9 C 3,4 C 0,0 km/h (0 Bft) 100 %
22.11.2017 19:50 3,3 C 3,3 C 3,4 C 91 % 1010,5 hPa 0,0 l/m 0,0 km/h (0 Bft) S-SO 154 0 min 0,000 mm 0 W/m 2,0 C 3,3 C 0,0 km/h (0 Bft) 99 %
22.11.2017 20:00 3,1 C 3,1 C 3,3 C 90 % 1010,2 hPa 0,0 l/m 0,0 km/h (0 Bft) S-SO 154 0 min 0,000 mm 0 W/m 1,6 C 3,1 C 0,0 km/h (0 Bft) 100 %
22.11.2017 20:10 2,9 C 2,9 C 3,1 C 90 % 1010,2 hPa 0,0 l/m 0,0 km/h (0 Bft) S-SO 154 0 min 0,000 mm 0 W/m 1,4 C 2,9 C 0,0 km/h (0 Bft) 100 %
22.11.2017 20:20 2,9 C 2,9 C 2,9 C 90 % 1010,1 hPa 0,0 l/m 0,0 km/h (0 Bft) S-SO 154 0 min 0,000 mm 0 W/m 1,4 C 2,9 C 0,0 km/h (0 Bft) 99 %
22.11.2017 20:30 2,9 C 2,9 C 2,9 C 90 % 1010,1 hPa 0,0 l/m 0,0 km/h (0 Bft) S-SO 154 0 min 0,000 mm 0 W/m 1,4 C 2,9 C 0,0 km/h (0 Bft) 99 %
22.11.2017 20:40 2,9 C 2,9 C 2,9 C 90 % 1010,0 hPa 0,0 l/m 0,0 km/h (0 Bft) S-SO 154 0 min 0,000 mm 0 W/m 1,4 C 2,9 C 0,0 km/h (0 Bft) 100 %
22.11.2017 20:50 2,9 C 2,9 C 3,0 C 90 % 1010,0 hPa 0,0 l/m 0,0 km/h (0 Bft) S-SO 154 0 min 0,000 mm 0 W/m 1,4 C 2,9 C 0,0 km/h (0 Bft) 99 %
22.11.2017 21:00 2,9 C 2,9 C 2,9 C 90 % 1010,0 hPa 0,0 l/m 0,0 km/h (0 Bft) S-SO 154 0 min 0,000 mm 0 W/m 1,4 C 2,9 C 0,0 km/h (0 Bft) 100 %
22.11.2017 21:10 2,6 C 2,6 C 2,9 C 90 % 1010,1 hPa 0,0 l/m 0,0 km/h (0 Bft) N 0 0 min 0,000 mm 0 W/m 1,1 C 2,6 C 0,0 km/h (0 Bft) 96 %
22.11.2017 21:20 2,3 C 2,3 C 2,6 C 90 % 1010,1 hPa 0,0 l/m 0,0 km/h (0 Bft) N 0 0 min 0,000 mm 0 W/m 0,8 C 2,3 C 0,0 km/h (0 Bft) 98 %
22.11.2017 21:30 2,3 C 2,3 C 2,3 C 90 % 1010,0 hPa 0,0 l/m 0,0 km/h (0 Bft) N 0 0 min 0,000 mm 0 W/m 0,8 C 2,3 C 0,0 km/h (0 Bft) 99 %
22.11.2017 21:40 2,3 C 2,3 C 2,3 C 90 % 1010,0 hPa 0,0 l/m 0,0 km/h (0 Bft) N 0 0 min 0,000 mm 0 W/m 0,8 C 2,3 C 0,0 km/h (0 Bft) 100 %
22.11.2017 21:50 2,4 C 2,3 C 2,4 C 90 % 1009,9 hPa 0,0 l/m 0,0 km/h (0 Bft) N 0 0 min 0,000 mm 0 W/m 0,9 C 2,4 C 0,0 km/h (0 Bft) 89 %
22.11.2017 22:00 2,2 C 2,2 C 2,4 C 90 % 1009,9 hPa 0,0 l/m 0,0 km/h (0 Bft) N 0 0 min 0,000 mm 0 W/m 0,7 C 2,2 C 0,0 km/h (0 Bft) 99 %
22.11.2017 22:10 2,1 C 2,1 C 2,2 C 90 % 1009,8 hPa 0,0 l/m 0,0 km/h (0 Bft) N 0 0 min 0,000 mm 0 W/m 0,6 C 2,1 C 0,0 km/h (0 Bft) 100 %
22.11.2017 22:20 2,0 C 2,0 C 2,1 C 90 % 1009,5 hPa 0,0 l/m 0,0 km/h (0 Bft) N 0 0 min 0,000 mm 0 W/m 0,5 C 2,0 C 0,0 km/h (0 Bft) 100 %
22.11.2017 22:30 1,9 C 1,9 C 2,0 C 90 % 1009,8 hPa 0,0 l/m 0,0 km/h (0 Bft) N 0 0 min 0,000 mm 0 W/m 0,4 C 1,9 C 0,0 km/h (0 Bft) 100 %
22.11.2017 22:40 1,7 C 1,7 C 1,9 C 90 % 1009,8 hPa 0,0 l/m 0,0 km/h (0 Bft) S-SO 157 0 min 0,000 mm 0 W/m 0,2 C 1,7 C 1,6 km/h (1 Bft) 100 %
22.11.2017 22:50 1,5 C 1,5 C 1,7 C 91 % 1009,8 hPa 0,0 l/m 0,0 km/h (0 Bft) N 0 0 min 0,000 mm 0 W/m 0,2 C 1,5 C 0,0 km/h (0 Bft) 100 %
22.11.2017 23:00 1,7 C 1,5 C 1,7 C 90 % 1009,6 hPa 0,0 l/m 0,0 km/h (0 Bft) SW 225 0 min 0,000 mm 0 W/m 0,2 C 1,7 C 4,8 km/h (1 Bft) 100 %
22.11.2017 23:10 1,6 C 1,6 C 1,7 C 91 % 1009,6 hPa 0,0 l/m 0,0 km/h (0 Bft) N 0 0 min 0,000 mm 0 W/m 0,3 C 1,6 C 0,0 km/h (0 Bft) 100 %
22.11.2017 23:20 1,3 C 1,3 C 1,6 C 90 % 1009,6 hPa 0,0 l/m 3,2 km/h (1 Bft) NW 315 0 min 0,000 mm 0 W/m -0,2 C 1,3 C 4,8 km/h (1 Bft) 100 %
22.11.2017 23:30 1,3 C 1,2 C 1,3 C 91 % 1009,7 hPa 0,0 l/m 3,2 km/h (1 Bft) N-NW 337 0 min 0,000 mm 0 W/m -0,0 C 1,3 C 4,8 km/h (1 Bft) 100 %
22.11.2017 23:40 1,6 C 1,3 C 1,6 C 91 % 1009,6 hPa 0,0 l/m 1,6 km/h (1 Bft) N-NW 337 0 min 0,000 mm 0 W/m 0,3 C 1,6 C 3,2 km/h (1 Bft) 100 %
22.11.2017 23:50 1,7 C 1,6 C 1,8 C 91 % 1009,6 hPa 0,0 l/m 0,0 km/h (0 Bft) N 0 0 min 0,000 mm 0 W/m 0,4 C 1,7 C 0,0 km/h (0 Bft) 100 %
_ Min-Zeit 23:30 23:30 23:30 15:20 22:20 - 15:30 - - - - - 23:20 23:20 15:50 00:10
Minimum _ 1,2 C 1,2 C 1,3 C 79 % 1009,5 hPa - 0,0 km/h (0 Bft) - - - - - -0,2 C 1,3 C 0,0 km/h (0 Bft) 77 %
_ Max-Zeit 14:40 14:50 14:40 00:00 00:10 00:00 00:00 - - 10:50 11:00 11:10 13:50 14:40 01:00 11:40
Maximum _ 10,7 C 10,7 C 10,7 C 91 % 1014,7 hPa 0,0 l/m 6,4 km/h
S-SO (2 Bft)
- - 20 min 0,102 mm 320 W/m 7,8 C 10,7 C 14,5 km/h
S-SO (3 Bft)
100 %
Durchschnitt _ 5,1 C 5,0 C 5,2 C 89 % 1012,3 hPa #0,0 l/m 2,4 km/h (1 Bft) S-SO - #4:50 h #0,584 mm 144 W/m 3,4 C 5,1 C 6,3 km/h (2 Bft) 98 %
PRIVATE WETTERSTATION BILLIGHEIM-ALLFELD - www.neckar-odenwald-wetter.de - Holger Sonntag